createdAt,value
2023-04-02T00:00:46.445Z,94427.00
2023-04-02T00:01:46.537Z,94427.00
2023-04-02T00:02:46.590Z,94427.00
2023-04-02T00:03:46.768Z,94429.00
2023-04-02T00:04:46.652Z,94429.00
2023-04-02T00:05:46.690Z,94429.00
2023-04-02T00:06:46.727Z,94429.00
2023-04-02T00:07:46.736Z,94429.00
2023-04-02T00:08:46.748Z,94429.00
2023-04-02T00:09:46.757Z,94431.00
2023-04-02T00:10:46.763Z,94431.00
2023-04-02T00:11:46.812Z,94433.00
2023-04-02T00:12:46.799Z,94435.00
2023-04-02T00:13:46.811Z,94431.00
2023-04-02T00:14:46.797Z,94435.00
2023-04-02T00:15:46.824Z,94435.00
2023-04-02T00:16:47.008Z,94437.00
2023-04-02T00:17:46.854Z,94437.00
2023-04-02T00:18:46.844Z,94439.00
2023-04-02T00:19:46.861Z,94439.00
2023-04-02T00:20:46.859Z,94441.00
2023-04-02T00:21:46.858Z,94439.00
2023-04-02T00:22:46.862Z,94439.00
2023-04-02T00:23:46.891Z,94437.00
2023-04-02T00:24:46.885Z,94435.00
2023-04-02T00:25:46.907Z,94435.00
2023-04-02T00:26:46.909Z,94435.00
2023-04-02T00:27:46.974Z,94439.00
2023-04-02T00:28:46.942Z,94441.00
2023-04-02T00:29:46.953Z,94441.00
2023-04-02T00:30:46.981Z,94441.00
2023-04-02T00:31:47.073Z,94441.00
2023-04-02T00:32:47.057Z,94443.00
2023-04-02T00:33:47.031Z,94441.00
2023-04-02T00:34:47.035Z,94443.00
2023-04-02T00:35:47.121Z,94448.00
2023-04-02T00:36:47.069Z,94443.00
2023-04-02T00:37:47.097Z,94446.00
2023-04-02T00:38:48.706Z,94448.00
2023-04-02T00:39:47.117Z,94446.00
2023-04-02T00:40:47.097Z,94446.00
2023-04-02T00:41:47.158Z,94448.00
2023-04-02T00:42:47.097Z,94446.00
2023-04-02T00:43:47.109Z,94444.00
2023-04-02T00:44:47.071Z,94448.00
2023-04-02T00:45:47.096Z,94443.00
2023-04-02T00:46:47.466Z,94441.00
2023-04-02T00:47:47.068Z,94444.00
2023-04-02T00:48:47.052Z,94441.00
2023-04-02T00:49:47.041Z,94441.00
2023-04-02T00:50:47.036Z,94441.00
2023-04-02T00:51:47.030Z,94441.00
2023-04-02T00:52:47.021Z,94441.00
2023-04-02T00:53:47.032Z,94443.00
2023-04-02T00:54:46.999Z,94444.00
2023-04-02T00:55:46.998Z,94444.00
2023-04-02T00:56:47.036Z,94443.00
2023-04-02T00:57:47.009Z,94443.00
2023-04-02T00:58:46.978Z,94444.00
2023-04-02T00:59:46.998Z,94443.00
2023-04-02T01:00:46.957Z,94443.00
2023-04-02T01:01:47.033Z,94443.00
2023-04-02T01:02:47.027Z,94441.00
2023-04-02T01:03:47.055Z,94443.00
2023-04-02T01:04:46.940Z,94439.00
2023-04-02T01:05:46.925Z,94441.00
2023-04-02T01:06:46.916Z,94439.00
2023-04-02T01:07:46.916Z,94439.00
2023-04-02T01:08:46.907Z,94439.00
2023-04-02T01:09:46.904Z,94439.00
2023-04-02T01:10:46.891Z,94437.00
2023-04-02T01:11:46.880Z,94441.00
2023-04-02T01:12:46.864Z,94441.00
2023-04-02T01:13:46.856Z,94441.00
2023-04-02T01:14:46.848Z,94441.00
2023-04-02T01:15:46.958Z,94443.00
2023-04-02T01:16:46.839Z,94441.00
2023-04-02T01:17:46.851Z,94444.00
2023-04-02T01:18:46.831Z,94444.00
2023-04-02T01:19:46.814Z,94446.00
2023-04-02T01:20:46.806Z,94443.00
2023-04-02T01:21:46.810Z,94446.00
2023-04-02T01:22:46.793Z,94444.00
2023-04-02T01:23:46.795Z,94444.00
2023-04-02T01:24:46.776Z,94444.00
2023-04-02T01:25:46.777Z,94444.00
2023-04-02T01:26:46.771Z,94446.00
2023-04-02T01:27:46.757Z,94446.00
2023-04-02T01:28:46.745Z,94446.00
2023-04-02T01:29:46.736Z,94443.00
2023-04-02T01:30:46.734Z,94444.00
2023-04-02T01:31:46.857Z,94444.00
2023-04-02T01:32:46.751Z,94444.00
2023-04-02T01:33:46.708Z,94446.00
2023-04-02T01:34:46.717Z,94446.00
2023-04-02T01:35:46.723Z,94446.00
2023-04-02T01:36:46.735Z,94444.00
2023-04-02T01:37:46.805Z,94448.00
2023-04-02T01:38:46.758Z,94450.00
2023-04-02T01:39:46.766Z,94450.00
2023-04-02T01:40:46.783Z,94452.00
2023-04-02T01:41:46.808Z,94452.00
2023-04-02T01:42:46.812Z,94452.00
2023-04-02T01:43:46.838Z,94454.00
2023-04-02T01:44:46.864Z,94454.00
2023-04-02T01:45:46.866Z,94456.00
2023-04-02T01:46:46.885Z,94454.00
2023-04-02T01:47:46.916Z,94454.00
2023-04-02T01:48:46.886Z,94456.00
2023-04-02T01:49:46.886Z,94456.00
2023-04-02T01:50:46.922Z,94458.00
2023-04-02T01:51:46.925Z,94458.00
2023-04-02T01:52:46.954Z,94462.00
2023-04-02T01:53:46.952Z,94462.00
2023-04-02T01:54:46.962Z,94462.00
2023-04-02T01:55:46.974Z,94460.00
2023-04-02T01:56:47.171Z,94460.00
2023-04-02T01:57:46.987Z,94464.00
2023-04-02T01:58:46.988Z,94462.00
2023-04-02T01:59:47.012Z,94466.00
2023-04-02T02:00:47.048Z,94466.00
2023-04-02T02:01:47.140Z,94468.00
2023-04-02T02:02:47.101Z,94468.00
2023-04-02T02:03:47.085Z,94468.00
2023-04-02T02:04:47.059Z,94466.00
2023-04-02T02:05:47.067Z,94470.00
2023-04-02T02:06:47.100Z,94470.00
2023-04-02T02:07:47.089Z,94472.00
2023-04-02T02:08:47.101Z,94472.00
2023-04-02T02:09:47.117Z,94474.00
2023-04-02T02:10:47.120Z,94476.00
2023-04-02T02:11:47.129Z,94480.00
2023-04-02T02:12:47.127Z,94480.00
2023-04-02T02:13:47.136Z,94480.00
2023-04-02T02:14:47.133Z,94480.00
2023-04-02T02:15:47.122Z,94482.00
2023-04-02T02:16:47.176Z,94484.00
2023-04-02T02:17:47.155Z,94486.00
2023-04-02T02:18:47.130Z,94488.00
2023-04-02T02:19:47.167Z,94486.00
2023-04-02T02:20:47.147Z,94486.00
2023-04-02T02:21:47.140Z,94486.00
2023-04-02T02:22:47.156Z,94484.00
2023-04-02T02:23:47.166Z,94480.00
2023-04-02T02:24:47.197Z,94478.00
2023-04-02T02:25:47.200Z,94482.00
2023-04-02T02:26:47.171Z,94482.00
2023-04-02T02:27:47.229Z,94482.00
2023-04-02T02:28:47.184Z,94488.00
2023-04-02T02:29:47.198Z,94488.00
2023-04-02T02:30:47.215Z,94490.00
2023-04-02T02:31:47.247Z,94488.00
2023-04-02T02:32:47.290Z,94488.00
2023-04-02T02:33:47.266Z,94488.00
2023-04-02T02:34:47.278Z,94490.00
2023-04-02T02:35:47.337Z,94490.00
2023-04-02T02:36:47.316Z,94490.00
2023-04-02T02:37:47.368Z,94492.00
2023-04-02T02:38:47.401Z,94498.00
2023-04-02T02:39:47.402Z,94498.00
2023-04-02T02:40:47.422Z,94498.00
2023-04-02T02:41:47.448Z,94498.00
2023-04-02T02:42:47.449Z,94498.00
2023-04-02T02:43:47.460Z,94501.00
2023-04-02T02:44:47.478Z,94501.00
2023-04-02T02:45:47.522Z,94501.00
2023-04-02T02:46:47.551Z,94501.00
2023-04-02T02:47:47.642Z,94501.00
2023-04-02T02:48:47.539Z,94503.00
2023-04-02T02:49:47.539Z,94499.00
2023-04-02T02:50:47.542Z,94501.00
2023-04-02T02:51:47.577Z,94507.00
2023-04-02T02:52:47.592Z,94509.00
2023-04-02T02:53:47.570Z,94509.00
2023-04-02T02:54:47.567Z,94511.00
2023-04-02T02:55:47.570Z,94509.00
2023-04-02T02:56:47.627Z,94513.00
2023-04-02T02:57:47.596Z,94513.00
2023-04-02T02:58:47.591Z,94517.00
2023-04-02T02:59:47.599Z,94515.00
2023-04-02T03:00:47.585Z,94517.00
2023-04-02T03:01:47.641Z,94515.00
2023-04-02T03:02:47.766Z,94517.00
2023-04-02T03:03:47.818Z,94519.00
2023-04-02T03:04:47.593Z,94519.00
2023-04-02T03:05:47.630Z,94517.00
2023-04-02T03:06:47.627Z,94519.00
2023-04-02T03:07:47.660Z,94517.00
2023-04-02T03:08:47.632Z,94517.00
2023-04-02T03:09:47.649Z,94519.00
2023-04-02T03:10:47.700Z,94521.00
2023-04-02T03:11:47.681Z,94519.00
2023-04-02T03:12:47.680Z,94519.00
2023-04-02T03:13:47.733Z,94521.00
2023-04-02T03:14:47.716Z,94517.00
2023-04-02T03:15:47.761Z,94519.00
2023-04-02T03:16:47.732Z,94517.00
2023-04-02T03:17:47.773Z,94519.00
2023-04-02T03:18:47.761Z,94521.00
2023-04-02T03:19:47.762Z,94521.00
2023-04-02T03:20:47.840Z,94521.00
2023-04-02T03:21:47.809Z,94525.00
2023-04-02T03:22:47.820Z,94527.00
2023-04-02T03:23:47.877Z,94529.00
2023-04-02T03:24:47.851Z,94531.00
2023-04-02T03:25:47.891Z,94531.00
2023-04-02T03:26:47.869Z,94535.00
2023-04-02T03:27:47.893Z,94533.00
2023-04-02T03:28:47.861Z,94533.00
2023-04-02T03:29:47.865Z,94533.00
2023-04-02T03:30:47.875Z,94533.00
2023-04-02T03:31:47.885Z,94533.00
2023-04-02T03:32:48.643Z,94531.00
2023-04-02T03:33:47.882Z,94535.00
2023-04-02T03:34:47.904Z,94535.00
2023-04-02T03:35:47.963Z,94539.00
2023-04-02T03:36:47.922Z,94539.00
2023-04-02T03:37:47.946Z,94541.00
2023-04-02T03:38:47.947Z,94543.00
2023-04-02T03:39:48.012Z,94543.00
2023-04-02T03:40:48.058Z,94545.00
2023-04-02T03:41:47.986Z,94546.00
2023-04-02T03:42:47.994Z,94546.00
2023-04-02T03:43:48.036Z,94550.00
2023-04-02T03:44:48.009Z,94548.00
2023-04-02T03:45:48.020Z,94550.00
2023-04-02T03:46:48.149Z,94550.00
2023-04-02T03:47:48.090Z,94550.00
2023-04-02T03:48:48.068Z,94552.00
2023-04-02T03:49:48.080Z,94552.00
2023-04-02T03:50:48.104Z,94556.00
2023-04-02T03:51:48.136Z,94558.00
2023-04-02T03:52:48.103Z,94554.00
2023-04-02T03:53:48.143Z,94560.00
2023-04-02T03:54:54.149Z,94562.00
2023-04-02T03:55:48.197Z,94556.00
2023-04-02T03:56:48.148Z,94554.00
2023-04-02T03:57:48.107Z,94558.00
2023-04-02T03:58:48.088Z,94562.00
2023-04-02T03:59:48.089Z,94562.00
2023-04-02T04:00:48.084Z,94560.00
2023-04-02T04:01:48.135Z,94566.00
2023-04-02T04:02:48.109Z,94568.00
2023-04-02T04:03:48.122Z,94570.00
2023-04-02T04:04:48.069Z,94570.00
2023-04-02T04:05:48.044Z,94572.00
2023-04-02T04:06:48.040Z,94572.00
2023-04-02T04:07:48.020Z,94572.00
2023-04-02T04:08:48.017Z,94572.00
2023-04-02T04:09:48.077Z,94570.00
2023-04-02T04:10:48.019Z,94572.00
2023-04-02T04:11:48.023Z,94570.00
2023-04-02T04:12:47.994Z,94570.00
2023-04-02T04:13:47.995Z,94570.00
2023-04-02T04:14:47.976Z,94568.00
2023-04-02T04:15:47.966Z,94572.00
2023-04-02T04:16:47.984Z,94574.00
2023-04-02T04:17:48.037Z,94576.00
2023-04-02T04:18:47.950Z,94580.00
2023-04-02T04:19:47.950Z,94580.00
2023-04-02T04:20:47.943Z,94582.00
2023-04-02T04:21:47.934Z,94580.00
2023-04-02T04:22:47.919Z,94578.00
2023-04-02T04:23:47.913Z,94582.00
2023-04-02T04:24:47.930Z,94578.00
2023-04-02T04:25:47.907Z,94578.00
2023-04-02T04:26:47.895Z,94578.00
2023-04-02T04:27:47.912Z,94580.00
2023-04-02T04:28:47.894Z,94582.00
2023-04-02T04:29:47.874Z,94582.00
2023-04-02T04:30:47.868Z,94584.00
2023-04-02T04:31:47.920Z,94586.00
2023-04-02T04:32:47.914Z,94586.00
2023-04-02T04:33:47.852Z,94588.00
2023-04-02T04:34:47.849Z,94590.00
2023-04-02T04:35:47.853Z,94592.00
2023-04-02T04:36:47.849Z,94593.00
2023-04-02T04:37:47.823Z,94593.00
2023-04-02T04:38:47.875Z,94595.00
2023-04-02T04:39:47.821Z,94597.00
2023-04-02T04:40:47.809Z,94597.00
2023-04-02T04:41:47.800Z,94599.00
2023-04-02T04:42:47.788Z,94601.00
2023-04-02T04:43:47.848Z,94603.00
2023-04-02T04:44:47.792Z,94603.00
2023-04-02T04:45:47.892Z,94605.00
2023-04-02T04:46:47.758Z,94605.00
2023-04-02T04:47:47.900Z,94609.00
2023-04-02T04:48:47.752Z,94609.00
2023-04-02T04:49:47.744Z,94611.00
2023-04-02T04:50:47.742Z,94611.00
2023-04-02T04:51:47.763Z,94613.00
2023-04-02T04:52:47.716Z,94617.00
2023-04-02T04:53:47.714Z,94615.00
2023-04-02T04:54:47.703Z,94617.00
2023-04-02T04:55:47.698Z,94621.00
2023-04-02T04:56:47.750Z,94621.00
2023-04-02T04:57:47.687Z,94621.00
2023-04-02T04:58:47.675Z,94621.00
2023-04-02T04:59:47.690Z,94623.00
2023-04-02T05:00:49.063Z,94623.00
2023-04-02T05:01:47.730Z,94623.00
2023-04-02T05:02:47.681Z,94623.00
2023-04-02T05:03:47.641Z,94623.00
2023-04-02T05:04:47.654Z,94621.00
2023-04-02T05:05:47.619Z,94625.00
2023-04-02T05:06:47.644Z,94623.00
2023-04-02T05:07:47.610Z,94623.00
2023-04-02T05:08:47.597Z,94623.00
2023-04-02T05:09:47.589Z,94623.00
2023-04-02T05:10:47.591Z,94625.00
2023-04-02T05:11:47.608Z,94625.00
2023-04-02T05:12:47.573Z,94627.00
2023-04-02T05:13:47.583Z,94627.00
2023-04-02T05:14:47.589Z,94627.00
2023-04-02T05:15:47.651Z,94629.00
2023-04-02T05:16:47.543Z,94629.00
2023-04-02T05:17:47.588Z,94629.00
2023-04-02T05:18:47.552Z,94629.00
2023-04-02T05:19:47.607Z,94629.00
2023-04-02T05:20:47.522Z,94639.00
2023-04-02T05:21:47.500Z,94639.00
2023-04-02T05:22:47.505Z,94639.00
2023-04-02T05:23:47.492Z,94644.00
2023-04-02T05:24:47.480Z,94642.00
2023-04-02T05:25:47.475Z,94644.00
2023-04-02T05:26:47.472Z,94644.00
2023-04-02T05:27:47.461Z,94644.00
2023-04-02T05:28:47.456Z,94648.00
2023-04-02T05:29:47.459Z,94652.00
2023-04-02T05:30:47.443Z,94648.00
2023-04-02T05:31:47.518Z,94652.00
2023-04-02T05:32:47.471Z,94652.00
2023-04-02T05:33:47.422Z,94656.00
2023-04-02T05:34:47.448Z,94656.00
2023-04-02T05:35:47.432Z,94656.00
2023-04-02T05:36:47.391Z,94662.00
2023-04-02T05:37:47.394Z,94662.00
2023-04-02T05:38:47.380Z,94662.00
2023-04-02T05:39:47.373Z,94666.00
2023-04-02T05:40:47.367Z,94664.00
2023-04-02T05:41:47.371Z,94666.00
2023-04-02T05:42:47.361Z,94666.00
2023-04-02T05:43:47.356Z,94666.00
2023-04-02T05:44:47.337Z,94668.00
2023-04-02T05:45:47.338Z,94670.00
2023-04-02T05:46:47.386Z,94672.00
2023-04-02T05:47:47.455Z,94672.00
2023-04-02T05:48:47.343Z,94674.00
2023-04-02T05:49:47.305Z,94674.00
2023-04-02T05:50:47.302Z,94672.00
2023-04-02T05:51:47.295Z,94674.00
2023-04-02T05:52:47.293Z,94678.00
2023-04-02T05:53:47.290Z,94676.00
2023-04-02T05:54:47.280Z,94678.00
2023-04-02T05:55:47.268Z,94676.00
2023-04-02T05:56:47.309Z,94678.00
2023-04-02T05:57:59.018Z,94682.00
2023-04-02T05:58:47.259Z,94682.00
2023-04-02T05:59:47.250Z,94682.00
2023-04-02T06:00:47.239Z,94684.00
2023-04-02T06:01:47.352Z,94686.00
2023-04-02T06:02:47.274Z,94688.00
2023-04-02T06:03:47.249Z,94688.00
2023-04-02T06:04:47.225Z,94692.00
2023-04-02T06:05:47.206Z,94690.00
2023-04-02T06:06:47.188Z,94692.00
2023-04-02T06:07:47.196Z,94693.00
2023-04-02T06:08:47.188Z,94693.00
2023-04-02T06:09:47.197Z,94695.00
2023-04-02T06:10:47.168Z,94699.00
2023-04-02T06:11:47.165Z,94697.00
2023-04-02T06:12:47.154Z,94697.00
2023-04-02T06:13:47.146Z,94699.00
2023-04-02T06:14:47.135Z,94701.00
2023-04-02T06:15:47.860Z,94701.00
2023-04-02T06:16:47.200Z,94703.00
2023-04-02T06:17:47.209Z,94705.00
2023-04-02T06:18:47.138Z,94707.00
2023-04-02T06:19:47.135Z,94705.00
2023-04-02T06:20:47.107Z,94707.00
2023-04-02T06:21:47.085Z,94707.00
2023-04-02T06:22:47.098Z,94707.00
2023-04-02T06:23:47.134Z,94705.00
2023-04-02T06:24:47.070Z,94707.00
2023-04-02T06:25:47.061Z,94709.00
2023-04-02T06:26:47.078Z,94707.00
2023-04-02T06:27:47.065Z,94707.00
2023-04-02T06:28:47.048Z,94707.00
2023-04-02T06:29:47.032Z,94707.00
2023-04-02T06:30:47.085Z,94707.00
2023-04-02T06:31:49.340Z,94707.00
2023-04-02T06:32:47.163Z,94707.00
2023-04-02T06:33:47.005Z,94709.00
2023-04-02T06:34:47.008Z,94707.00
2023-04-02T06:35:47.136Z,94707.00
2023-04-02T06:36:46.979Z,94707.00
2023-04-02T06:37:46.977Z,94705.00
2023-04-02T06:38:46.979Z,94707.00
2023-04-02T06:39:46.963Z,94711.00
2023-04-02T06:40:46.956Z,94709.00
2023-04-02T06:41:46.956Z,94705.00
2023-04-02T06:42:46.943Z,94709.00
2023-04-02T06:43:47.022Z,94707.00
2023-04-02T06:44:46.974Z,94711.00
2023-04-02T06:45:46.986Z,94709.00
2023-04-02T06:46:46.928Z,94711.00
2023-04-02T06:47:46.966Z,94709.00
2023-04-02T06:48:46.933Z,94713.00
2023-04-02T06:49:46.900Z,94713.00
2023-04-02T06:50:46.890Z,94717.00
2023-04-02T06:51:46.914Z,94719.00
2023-04-02T06:52:46.905Z,94721.00
2023-04-02T06:53:46.870Z,94721.00
2023-04-02T06:54:46.865Z,94721.00
2023-04-02T06:55:46.861Z,94721.00
2023-04-02T06:56:46.912Z,94723.00
2023-04-02T06:57:46.894Z,94723.00
2023-04-02T06:58:46.840Z,94723.00
2023-04-02T06:59:46.835Z,94723.00
2023-04-02T07:00:46.828Z,94723.00
2023-04-02T07:01:46.882Z,94723.00
2023-04-02T07:02:46.865Z,94721.00
2023-04-02T07:03:46.854Z,94721.00
2023-04-02T07:04:46.836Z,94721.00
2023-04-02T07:05:46.816Z,94723.00
2023-04-02T07:06:46.781Z,94719.00
2023-04-02T07:07:46.807Z,94721.00
2023-04-02T07:08:46.808Z,94717.00
2023-04-02T07:09:46.770Z,94721.00
2023-04-02T07:10:46.776Z,94721.00
2023-04-02T07:11:46.813Z,94723.00
2023-04-02T07:12:46.744Z,94723.00
2023-04-02T07:13:46.748Z,94725.00
2023-04-02T07:14:46.731Z,94725.00
2023-04-02T07:15:46.821Z,94725.00
2023-04-02T07:16:46.765Z,94727.00
2023-04-02T07:17:46.785Z,94725.00
2023-04-02T07:18:46.707Z,94725.00
2023-04-02T07:19:46.702Z,94725.00
2023-04-02T07:20:46.723Z,94725.00
2023-04-02T07:21:46.689Z,94725.00
2023-04-02T07:22:46.691Z,94727.00
2023-04-02T07:23:46.725Z,94725.00
2023-04-02T07:24:46.673Z,94727.00
2023-04-02T07:25:46.658Z,94725.00
2023-04-02T07:26:46.653Z,94727.00
2023-04-02T07:27:46.660Z,94725.00
2023-04-02T07:28:46.666Z,94723.00
2023-04-02T07:29:46.632Z,94723.00
2023-04-02T07:30:46.622Z,94725.00
2023-04-02T07:31:46.699Z,94725.00
2023-04-02T07:32:46.726Z,94727.00
2023-04-02T07:33:46.631Z,94725.00
2023-04-02T07:34:46.604Z,94727.00
2023-04-02T07:35:46.635Z,94725.00
2023-04-02T07:36:46.585Z,94731.00
2023-04-02T07:37:46.593Z,94731.00
2023-04-02T07:38:46.577Z,94731.00
2023-04-02T07:39:46.592Z,94733.00
2023-04-02T07:40:46.559Z,94735.00
2023-04-02T07:41:46.569Z,94735.00
2023-04-02T07:42:46.549Z,94737.00
2023-04-02T07:43:46.536Z,94739.00
2023-04-02T07:44:46.534Z,94737.00
2023-04-02T07:45:46.534Z,94739.00
2023-04-02T07:46:46.553Z,94739.00
2023-04-02T07:47:46.521Z,94739.00
2023-04-02T07:48:46.519Z,94740.00
2023-04-02T07:49:46.493Z,94742.00
2023-04-02T07:50:46.482Z,94742.00
2023-04-02T07:51:46.511Z,94744.00
2023-04-02T07:52:46.475Z,94744.00
2023-04-02T07:53:46.494Z,94746.00
2023-04-02T07:54:46.465Z,94746.00
2023-04-02T07:55:46.487Z,94746.00
2023-04-02T07:56:46.440Z,94746.00
2023-04-02T07:57:46.902Z,94748.00
2023-04-02T07:58:46.429Z,94746.00
2023-04-02T07:59:46.426Z,94746.00
2023-04-02T08:00:46.413Z,94746.00
2023-04-02T08:01:46.414Z,94746.00
2023-04-02T08:02:46.458Z,94746.00
2023-04-02T08:03:46.636Z,94748.00
2023-04-02T08:04:46.383Z,94750.00
2023-04-02T08:05:46.374Z,94748.00
2023-04-02T08:06:46.364Z,94748.00
2023-04-02T08:07:46.366Z,94750.00
2023-04-02T08:08:46.360Z,94744.00
2023-04-02T08:09:46.354Z,94746.00
2023-04-02T08:10:46.344Z,94746.00
2023-04-02T08:11:46.392Z,94748.00
2023-04-02T08:12:46.333Z,94748.00
2023-04-02T08:13:46.349Z,94748.00
2023-04-02T08:14:46.321Z,94752.00
2023-04-02T08:15:46.315Z,94752.00
2023-04-02T08:16:46.345Z,94752.00
2023-04-02T08:17:46.402Z,94752.00
2023-04-02T08:18:46.322Z,94752.00
2023-04-02T08:19:54.042Z,94750.00
2023-04-02T08:20:46.280Z,94748.00
2023-04-02T08:21:46.275Z,94750.00
2023-04-02T08:22:46.284Z,94750.00
2023-04-02T08:23:46.320Z,94750.00
2023-04-02T08:24:46.255Z,94750.00
2023-04-02T08:25:46.242Z,94752.00
2023-04-02T08:26:46.242Z,94752.00
2023-04-02T08:27:46.254Z,94754.00
2023-04-02T08:28:46.257Z,94752.00
2023-04-02T08:29:46.219Z,94752.00
2023-04-02T08:30:46.256Z,94752.00
2023-04-02T08:31:46.211Z,94752.00
2023-04-02T08:32:46.254Z,94750.00
2023-04-02T08:33:46.233Z,94748.00
2023-04-02T08:34:46.181Z,94748.00
2023-04-02T08:35:46.221Z,94750.00
2023-04-02T08:36:46.167Z,94750.00
2023-04-02T08:37:46.186Z,94752.00
2023-04-02T08:38:46.183Z,94752.00
2023-04-02T08:39:46.157Z,94750.00
2023-04-02T08:40:46.138Z,94752.00
2023-04-02T08:41:46.145Z,94754.00
2023-04-02T08:42:46.124Z,94750.00
2023-04-02T08:43:46.194Z,94752.00
2023-04-02T08:44:46.111Z,94752.00
2023-04-02T08:45:46.157Z,94752.00
2023-04-02T08:46:46.129Z,94754.00
2023-04-02T08:47:46.141Z,94752.00
2023-04-02T08:48:46.106Z,94756.00
2023-04-02T08:49:46.075Z,94756.00
2023-04-02T08:50:46.061Z,94756.00
2023-04-02T08:51:46.059Z,94756.00
2023-04-02T08:52:46.050Z,94756.00
2023-04-02T08:53:46.076Z,94752.00
2023-04-02T08:54:46.044Z,94752.00
2023-04-02T08:55:46.025Z,94752.00
2023-04-02T08:56:46.016Z,94754.00
2023-04-02T08:57:46.094Z,94750.00
2023-04-02T08:58:46.006Z,94750.00
2023-04-02T08:59:46.421Z,94754.00
2023-04-02T09:00:45.994Z,94752.00
2023-04-02T09:01:46.012Z,94754.00
2023-04-02T09:02:46.058Z,94752.00
2023-04-02T09:03:45.996Z,94752.00
2023-04-02T09:04:45.992Z,94754.00
2023-04-02T09:05:45.966Z,94752.00
2023-04-02T09:06:45.968Z,94752.00
2023-04-02T09:07:45.944Z,94752.00
2023-04-02T09:08:45.939Z,94752.00
2023-04-02T09:09:45.931Z,94752.00
2023-04-02T09:10:45.924Z,94754.00
2023-04-02T09:11:45.916Z,94752.00
2023-04-02T09:12:45.906Z,94754.00
2023-04-02T09:13:45.900Z,94756.00
2023-04-02T09:14:45.896Z,94756.00
2023-04-02T09:15:45.917Z,94756.00
2023-04-02T09:16:45.885Z,94760.00
2023-04-02T09:17:53.564Z,94762.00
2023-04-02T09:18:45.945Z,94762.00
2023-04-02T09:19:45.855Z,94758.00
2023-04-02T09:20:45.850Z,94758.00
2023-04-02T09:21:45.843Z,94764.00
2023-04-02T09:22:45.830Z,94760.00
2023-04-02T09:23:45.833Z,94760.00
2023-04-02T09:24:45.825Z,94762.00
2023-04-02T09:25:51.057Z,94756.00
2023-04-02T09:26:45.807Z,94758.00
2023-04-02T09:27:45.801Z,94758.00
2023-04-02T09:28:45.819Z,94760.00
2023-04-02T09:29:45.792Z,94758.00
2023-04-02T09:30:45.777Z,94756.00
2023-04-02T09:31:45.841Z,94758.00
2023-04-02T09:32:45.858Z,94756.00
2023-04-02T09:33:45.808Z,94756.00
2023-04-02T09:34:45.742Z,94758.00
2023-04-02T09:35:45.757Z,94760.00
2023-04-02T09:36:45.739Z,94756.00
2023-04-02T09:37:45.733Z,94758.00
2023-04-02T09:38:45.744Z,94756.00
2023-04-02T09:39:45.719Z,94758.00
2023-04-02T09:40:45.703Z,94758.00
2023-04-02T09:41:48.162Z,94758.00
2023-04-02T09:42:45.693Z,94758.00
2023-04-02T09:43:45.734Z,94762.00
2023-04-02T09:44:45.681Z,94762.00
2023-04-02T09:45:45.674Z,94762.00
2023-04-02T09:46:45.730Z,94762.00
2023-04-02T09:47:45.701Z,94760.00
2023-04-02T09:48:45.698Z,94764.00
2023-04-02T09:49:45.639Z,94764.00
2023-04-02T09:50:45.712Z,94762.00
2023-04-02T09:51:45.634Z,94764.00
2023-04-02T09:52:45.622Z,94762.00
2023-04-02T09:53:45.644Z,94762.00
2023-04-02T09:54:45.603Z,94764.00
2023-04-02T09:55:45.590Z,94764.00
2023-04-02T09:56:45.583Z,94764.00
2023-04-02T09:57:45.578Z,94766.00
2023-04-02T09:58:45.816Z,94764.00
2023-04-02T09:59:45.589Z,94762.00
2023-04-02T10:00:45.842Z,94762.00
2023-04-02T10:01:45.552Z,94762.00
2023-04-02T10:02:45.584Z,94764.00
2023-04-02T10:03:45.572Z,94764.00
2023-04-02T10:04:45.662Z,94768.00
2023-04-02T10:05:45.751Z,94768.00
2023-04-02T10:06:45.516Z,94768.00
2023-04-02T10:07:45.514Z,94770.00
2023-04-02T10:08:45.583Z,94770.00
2023-04-02T10:09:45.489Z,94768.00
2023-04-02T10:10:45.491Z,94772.00
2023-04-02T10:11:46.901Z,94770.00
2023-04-02T10:12:45.520Z,94770.00
2023-04-02T10:13:45.564Z,94772.00
2023-04-02T10:14:45.557Z,94772.00
2023-04-02T10:15:45.603Z,94770.00
2023-04-02T10:16:45.626Z,94768.00
2023-04-02T10:17:45.639Z,94766.00
2023-04-02T10:18:45.584Z,94770.00
2023-04-02T10:19:45.703Z,94768.00
2023-04-02T10:20:51.204Z,94768.00
2023-04-02T10:21:45.620Z,94766.00
2023-04-02T10:22:45.601Z,94768.00
2023-04-02T10:23:45.599Z,94766.00
2023-04-02T10:24:45.590Z,94762.00
2023-04-02T10:25:45.576Z,94764.00
2023-04-02T10:26:45.578Z,94766.00
2023-04-02T10:27:45.565Z,94766.00
2023-04-02T10:28:45.624Z,94770.00
2023-04-02T10:29:45.608Z,94768.00
2023-04-02T10:30:45.567Z,94768.00
2023-04-02T10:31:45.540Z,94768.00
2023-04-02T10:32:45.579Z,94770.00
2023-04-02T10:33:45.578Z,94772.00
2023-04-02T10:34:45.517Z,94774.00
2023-04-02T10:35:45.589Z,94776.00
2023-04-02T10:36:45.499Z,94778.00
2023-04-02T10:37:45.488Z,94782.00
2023-04-02T10:38:45.513Z,94780.00
2023-04-02T10:39:45.498Z,94780.00
2023-04-02T10:40:45.475Z,94780.00
2023-04-02T10:41:45.501Z,94782.00
2023-04-02T10:42:45.458Z,94780.00
2023-04-02T10:43:45.514Z,94778.00
2023-04-02T10:44:45.446Z,94778.00
2023-04-02T10:45:45.462Z,94782.00
2023-04-02T10:46:45.511Z,94780.00
2023-04-02T10:47:45.446Z,94782.00
2023-04-02T10:48:45.406Z,94782.00
2023-04-02T10:49:45.445Z,94782.00
2023-04-02T10:50:45.403Z,94787.00
2023-04-02T10:51:45.409Z,94786.00
2023-04-02T10:52:45.396Z,94786.00
2023-04-02T10:53:45.370Z,94786.00
2023-04-02T10:54:45.359Z,94784.00
2023-04-02T10:55:45.357Z,94789.00
2023-04-02T10:56:51.130Z,94787.00
2023-04-02T10:57:45.341Z,94789.00
2023-04-02T10:58:45.333Z,94789.00
2023-04-02T10:59:45.322Z,94791.00
2023-04-02T11:00:45.317Z,94791.00
2023-04-02T11:01:45.332Z,94795.00
2023-04-02T11:02:45.382Z,94795.00
2023-04-02T11:03:45.352Z,94797.00
2023-04-02T11:04:45.292Z,94795.00
2023-04-02T11:05:45.283Z,94795.00
2023-04-02T11:06:45.279Z,94797.00
2023-04-02T11:07:45.297Z,94797.00
2023-04-02T11:08:45.262Z,94797.00
2023-04-02T11:09:45.269Z,94799.00
2023-04-02T11:10:45.258Z,94801.00
2023-04-02T11:11:45.244Z,94801.00
2023-04-02T11:12:45.233Z,94801.00
2023-04-02T11:13:45.231Z,94801.00
2023-04-02T11:14:45.224Z,94801.00
2023-04-02T11:15:45.226Z,94797.00
2023-04-02T11:16:45.289Z,94801.00
2023-04-02T11:17:45.229Z,94801.00
2023-04-02T11:18:45.242Z,94801.00
2023-04-02T11:19:45.252Z,94801.00
2023-04-02T11:20:45.180Z,94801.00
2023-04-02T11:21:57.736Z,94801.00
2023-04-02T11:22:45.174Z,94803.00
2023-04-02T11:23:45.236Z,94803.00
2023-04-02T11:24:45.186Z,94805.00
2023-04-02T11:25:45.152Z,94803.00
2023-04-02T11:26:45.173Z,94807.00
2023-04-02T11:27:45.141Z,94809.00
2023-04-02T11:28:45.132Z,94809.00
2023-04-02T11:29:45.130Z,94813.00
2023-04-02T11:30:45.116Z,94811.00
2023-04-02T11:31:45.184Z,94815.00
2023-04-02T11:32:45.143Z,94813.00
2023-04-02T11:33:47.302Z,94817.00
2023-04-02T11:34:45.082Z,94821.00
2023-04-02T11:35:45.100Z,94821.00
2023-04-02T11:36:45.072Z,94821.00
2023-04-02T11:37:45.220Z,94825.00
2023-04-02T11:38:45.055Z,94823.00
2023-04-02T11:39:45.066Z,94825.00
2023-04-02T11:40:45.150Z,94827.00
2023-04-02T11:41:45.032Z,94827.00
2023-04-02T11:42:45.028Z,94829.00
2023-04-02T11:43:45.012Z,94829.00
2023-04-02T11:44:45.004Z,94831.00